Time;durP1;ratioP1;P1;durP2;ratioP2;P2;SDS_P1;SDS_P2;PMS_P1;PMS_P2;Temp;Humidity;BMP_temperature;BMP_pressure;BME280_temperature;BME280_humidity;BME280_pressure;Samples;Min_cycle;Max_cycle;Signal;HPM_P1;HPM_P2
2020/12/15 00:04:13;;;;;;;4.90;3.30;;;7.40;99.90;;;;;;12378772;28;20514;-84
2020/12/15 00:10:15;;;;;;;5.03;3.42;;;7.40;99.90;;;;;;12381632;28;20054;-84
2020/12/15 00:16:19;;;;;;;6.40;3.80;;;7.40;99.90;;;;;;12377813;28;20054;-85
2020/12/15 00:22:21;;;;;;;6.88;3.60;;;7.40;99.90;;;;;;12404908;28;20060;-84
2020/12/15 00:28:22;;;;;;;4.50;3.20;;;7.40;99.90;;;;;;12404312;28;20055;-84
2020/12/15 00:34:23;;;;;;;5.45;3.55;;;7.50;99.90;;;;;;12381006;28;20061;-84
2020/12/15 00:40:25;;;;;;;6.18;3.28;;;7.50;99.90;;;;;;12400910;28;20054;-85
2020/12/15 00:46:26;;;;;;;5.45;3.78;;;7.60;99.90;;;;;;12401581;28;20090;-84
2020/12/15 00:52:30;;;;;;;5.38;3.70;;;7.60;99.90;;;;;;12381384;28;20081;-84
2020/12/15 00:58:34;;;;;;;8.07;4.10;;;7.50;99.90;;;;;;12383449;28;20050;-84
2020/12/15 01:04:35;;;;;;;6.17;3.70;;;7.40;99.90;;;;;;12398718;28;20050;-84
2020/12/15 01:10:36;;;;;;;5.18;3.80;;;7.30;99.90;;;;;;12392788;28;20054;-84
2020/12/15 01:16:40;;;;;;;5.25;3.63;;;7.20;99.90;;;;;;12403388;28;20102;-84
2020/12/15 01:22:42;;;;;;;5.97;3.90;;;7.30;99.90;;;;;;12399076;28;20129;-85
2020/12/15 01:28:43;;;;;;;5.65;4.30;;;7.20;99.90;;;;;;12403095;28;20061;-83
2020/12/15 01:34:44;;;;;;;6.75;4.20;;;7.20;99.90;;;;;;12363484;28;20537;-84
2020/12/15 01:40:52;;;;;;;6.65;3.92;;;7.10;99.90;;;;;;12337913;28;20055;-84
2020/12/15 01:46:53;;;;;;;7.35;4.35;;;7.10;99.90;;;;;;12331881;28;20486;-84
2020/12/15 01:52:55;;;;;;;6.68;4.47;;;7.10;99.90;;;;;;12355988;28;20502;-84
2020/12/15 01:59:01;;;;;;;6.35;4.22;;;7.00;99.90;;;;;;12359064;28;20085;-84
2020/12/15 02:05:03;;;;;;;5.75;4.40;;;7.10;99.90;;;;;;12377664;28;20585;-83
2020/12/15 02:11:04;;;;;;;5.35;4.05;;;7.20;99.90;;;;;;12383208;28;20694;-84
2020/12/15 02:17:06;;;;;;;5.75;4.10;;;7.30;99.90;;;;;;12367720;28;20062;-84
2020/12/15 02:23:08;;;;;;;5.05;3.78;;;7.40;99.90;;;;;;12386903;28;20074;-84
2020/12/15 02:29:09;;;;;;;6.85;4.18;;;7.60;99.90;;;;;;12383562;28;20058;-84
2020/12/15 02:35:10;;;;;;;5.97;4.00;;;7.60;99.90;;;;;;12395120;28;20050;-84
2020/12/15 02:41:12;;;;;;;6.85;4.38;;;7.60;99.90;;;;;;12369524;28;20599;-83
2020/12/15 02:47:13;;;;;;;5.30;3.80;;;7.60;99.90;;;;;;12396061;28;20046;-84
2020/12/15 02:53:15;;;;;;;5.25;3.63;;;7.50;99.90;;;;;;12376171;28;20046;-84
2020/12/15 02:59:16;;;;;;;5.95;4.28;;;7.60;99.90;;;;;;12381038;28;20097;-85
2020/12/15 03:05:18;;;;;;;5.75;4.05;;;7.60;99.90;;;;;;12409266;28;20528;-84
2020/12/15 03:11:22;;;;;;;6.20;4.32;;;7.60;99.90;;;;;;12410075;28;20038;-83
2020/12/15 03:17:23;;;;;;;6.27;4.13;;;7.60;99.90;;;;;;12390395;28;20050;-84
2020/12/15 03:23:25;;;;;;;5.72;4.15;;;7.50;99.90;;;;;;12399090;28;20053;-84
2020/12/15 03:29:26;;;;;;;6.03;4.53;;;7.50;99.90;;;;;;12392470;28;20070;-84
2020/12/15 03:35:27;;;;;;;6.35;4.65;;;7.40;99.90;;;;;;12393551;28;20057;-84
2020/12/15 03:41:29;;;;;;;6.45;4.50;;;7.40;99.90;;;;;;12398306;28;20053;-83
2020/12/15 03:47:30;;;;;;;8.52;4.63;;;7.40;99.90;;;;;;12371220;28;20783;-84
2020/12/15 03:53:31;;;;;;;6.57;4.65;;;7.30;99.90;;;;;;12392120;28;20042;-84
2020/12/15 03:59:33;;;;;;;5.93;4.70;;;7.30;99.90;;;;;;12403685;28;20085;-84
2020/12/15 04:05:35;;;;;;;6.75;4.95;;;7.30;99.90;;;;;;12398714;28;20076;-85
2020/12/15 04:11:36;;;;;;;7.35;5.13;;;7.20;99.90;;;;;;12401879;28;20329;-84
2020/12/15 04:17:37;;;;;;;6.60;4.43;;;7.30;99.90;;;;;;12408412;28;20061;-84
2020/12/15 04:23:39;;;;;;;7.55;5.10;;;7.30;99.90;;;;;;12390010;28;20074;-84
2020/12/15 04:29:41;;;;;;;7.13;5.60;;;7.40;99.90;;;;;;12408176;28;20061;-84
2020/12/15 04:35:42;;;;;;;8.18;6.13;;;7.40;99.90;;;;;;12385434;28;20053;-84
2020/12/15 04:41:44;;;;;;;8.20;6.22;;;7.30;99.90;;;;;;12403486;28;20072;-84
2020/12/15 04:47:48;;;;;;;11.20;7.13;;;7.30;99.90;;;;;;12407115;28;20497;-85
2020/12/15 04:53:53;;;;;;;;;;;7.20;99.90;;;;;;12421982;28;20133;-84
2020/12/15 04:59:58;;;;;;;8.30;6.38;;;7.10;99.90;;;;;;12388037;28;19981;-84
2020/12/15 05:06:05;;;;;;;9.68;6.90;;;7.10;99.90;;;;;;12402353;28;20045;-84
2020/12/15 05:12:06;;;;;;;9.88;7.13;;;7.10;99.90;;;;;;12394819;28;20682;-84
2020/12/15 05:18:08;;;;;;;9.88;7.00;;;7.10;99.90;;;;;;12374690;28;20066;-84
2020/12/15 05:24:10;;;;;;;10.05;6.68;;;7.10;99.90;;;;;;12387903;28;20105;-84
2020/12/15 05:30:11;;;;;;;9.77;7.85;;;7.10;99.90;;;;;;12373920;28;20081;-84
2020/12/15 05:36:20;;;;;;;10.13;7.22;;;7.10;99.90;;;;;;12390747;28;20053;-84
2020/12/15 05:42:22;;;;;;;11.73;8.57;;;7.00;99.90;;;;;;12396640;28;20410;-84
2020/12/15 05:48:26;;;;;;;14.88;8.93;;;7.00;99.90;;;;;;12377386;28;20080;-84
2020/12/15 05:54:27;;;;;;;12.93;9.30;;;6.90;99.90;;;;;;12374848;28;20068;-85
2020/12/15 06:00:31;;;;;;;11.82;9.45;;;6.90;99.90;;;;;;12373702;28;20133;-84
2020/12/15 06:06:33;;;;;;;13.60;9.57;;;7.00;99.90;;;;;;12371427;28;20050;-84
2020/12/15 06:12:35;;;;;;;16.38;9.82;;;7.00;99.90;;;;;;12374463;28;20477;-84
2020/12/15 06:18:38;;;;;;;16.10;10.32;;;7.00;99.90;;;;;;12377319;28;20049;-84
2020/12/15 06:24:40;;;;;;;14.88;10.32;;;7.00;99.90;;;;;;12376904;28;20050;-85
2020/12/15 06:30:44;;;;;;;16.40;11.68;;;7.00;99.90;;;;;;12400697;28;20061;-84
2020/12/15 06:36:48;;;;;;;15.32;11.00;;;6.90;99.90;;;;;;12378211;28;20054;-84
2020/12/15 06:42:51;;;;;;;15.90;11.23;;;6.80;99.90;;;;;;12399416;28;20057;-85
2020/12/15 06:48:54;;;;;;;15.73;11.63;;;6.80;99.90;;;;;;12395749;28;20062;-85
2020/12/15 06:54:57;;;;;;;16.15;12.27;;;6.80;99.90;;;;;;12391212;28;20057;-85
2020/12/15 07:00:59;;;;;;;20.40;12.73;;;6.90;99.90;;;;;;12375669;28;20520;-84
2020/12/15 07:07:03;;;;;;;17.83;11.83;;;7.00;99.90;;;;;;12393845;28;20055;-85
2020/12/15 07:13:06;;;;;;;16.40;11.30;;;7.10;99.90;;;;;;12386833;28;20050;-85
2020/12/15 07:19:07;;;;;;;18.58;12.77;;;7.10;99.90;;;;;;12394299;28;20077;-85
2020/12/15 07:25:09;;;;;;;20.38;13.05;;;7.10;99.90;;;;;;12363075;28;20169;-85
2020/12/15 07:31:12;;;;;;;20.10;13.32;;;7.10;99.90;;;;;;12391659;28;21058;-85
2020/12/15 07:37:19;;;;;;;19.00;13.32;;;7.10;99.90;;;;;;12367134;28;20050;-85
2020/12/15 07:43:20;;;;;;;21.13;13.98;;;7.00;99.90;;;;;;12392777;28;20061;-85
2020/12/15 07:49:22;;;;;;;18.77;13.50;;;7.00;99.90;;;;;;12375343;28;20097;-85
2020/12/15 07:55:24;;;;;;;20.63;14.25;;;7.00;99.90;;;;;;12409994;28;20062;-85
2020/12/15 08:01:26;;;;;;;22.50;14.38;;;7.00;99.90;;;;;;12379558;28;20513;-85
2020/12/15 08:07:28;;;;;;;21.40;14.68;;;7.00;99.90;;;;;;12393230;28;20053;-85
2020/12/15 08:13:30;;;;;;;21.33;14.45;;;7.10;99.90;;;;;;12421762;28;20047;-85
2020/12/15 08:19:31;;;;;;;21.40;14.20;;;7.10;99.90;;;;;;12398846;28;20045;-85
2020/12/15 08:25:34;;;;;;;21.13;14.43;;;7.20;99.90;;;;;;12394939;28;20114;-85
2020/12/15 08:31:44;;;;;;;18.30;13.38;;;7.20;99.90;;;;;;12390109;28;20501;-85
2020/12/15 08:37:47;;;;;;;18.73;12.80;;;7.30;99.90;;;;;;12397839;28;20070;-85
2020/12/15 08:43:49;;;;;;;16.30;11.57;;;7.40;99.90;;;;;;12387308;28;20422;-85
2020/12/15 08:49:55;;;;;;;16.63;11.88;;;7.60;99.90;;;;;;12379710;28;20065;-85
2020/12/15 08:55:56;;;;;;;14.98;11.43;;;7.60;99.90;;;;;;12384003;28;20065;-85
2020/12/15 09:01:58;;;;;;;14.85;10.60;;;7.60;99.90;;;;;;12371067;28;20086;-85
2020/12/15 09:08:02;;;;;;;15.10;11.27;;;7.70;99.90;;;;;;12374258;28;20058;-85
2020/12/15 09:14:05;;;;;;;13.77;10.33;;;7.70;99.90;;;;;;12379293;28;20101;-84
2020/12/15 09:20:08;;;;;;;15.05;10.70;;;7.80;99.90;;;;;;12375426;28;20089;-85
2020/12/15 09:26:10;;;;;;;13.40;10.30;;;7.90;99.90;;;;;;12369714;28;20057;-85
2020/12/15 09:32:11;;;;;;;12.60;9.68;;;7.90;99.90;;;;;;12377160;28;20050;-85
2020/12/15 09:38:13;;;;;;;13.88;10.23;;;7.90;99.90;;;;;;12389034;28;20514;-85
2020/12/15 09:44:14;;;;;;;14.95;9.77;;;8.00;99.90;;;;;;12395836;28;20422;-85
2020/12/15 09:50:15;;;;;;;13.60;9.55;;;7.90;99.90;;;;;;12379229;28;20053;-85
2020/12/15 09:56:17;;;;;;;15.85;10.02;;;7.80;99.90;;;;;;12403511;28;20054;-85
2020/12/15 10:02:20;;;;;;;13.93;10.00;;;7.80;99.90;;;;;;12399850;28;20050;-84
2020/12/15 10:08:22;;;;;;;11.18;8.98;;;7.80;99.90;;;;;;12392005;28;20132;-85
2020/12/15 10:14:24;;;;;;;14.60;10.10;;;7.80;99.90;;;;;;12376041;28;20406;-85
2020/12/15 10:20:26;;;;;;;12.50;9.50;;;7.90;99.90;;;;;;12397714;28;20639;-85
2020/12/15 10:26:28;;;;;;;11.95;9.30;;;7.80;99.90;;;;;;12383247;28;20061;-84
2020/12/15 10:32:30;;;;;;;12.38;9.75;;;7.80;99.90;;;;;;12373063;28;20054;-85
2020/12/15 10:38:32;;;;;;;13.20;10.25;;;7.80;99.90;;;;;;12389308;28;20054;-85
2020/12/15 10:44:33;;;;;;;14.65;10.32;;;7.80;99.90;;;;;;12375821;28;20046;-86
2020/12/15 10:50:35;;;;;;;17.60;12.40;;;7.70;99.90;;;;;;12377386;28;20502;-85
2020/12/15 10:56:36;;;;;;;19.05;13.23;;;7.60;99.90;;;;;;12381864;28;20049;-85
2020/12/15 11:02:38;;;;;;;20.95;14.13;;;7.50;99.90;;;;;;12383714;28;20057;-86
2020/12/15 11:08:40;;;;;;;21.63;15.20;;;7.50;99.90;;;;;;12384125;28;20521;-85
2020/12/15 11:14:41;;;;;;;22.02;14.70;;;7.40;99.90;;;;;;12369758;28;20077;-86
2020/12/15 11:20:43;;;;;;;25.27;16.45;;;7.40;99.90;;;;;;12372156;28;20058;-86
2020/12/15 11:26:44;;;;;;;25.20;16.13;;;7.40;99.90;;;;;;12399858;28;20034;-86
2020/12/15 11:32:47;;;;;;;24.60;16.35;;;7.40;99.90;;;;;;12416112;28;20038;-86
2020/12/15 11:38:49;;;;;;;25.35;15.65;;;7.60;99.90;;;;;;12399038;28;20132;-86
2020/12/15 11:44:51;;;;;;;27.70;17.25;;;7.60;99.90;;;;;;12395807;28;20065;-85
2020/12/15 11:50:52;;;;;;;22.75;15.13;;;7.70;99.90;;;;;;12376442;28;20046;-86
2020/12/15 11:56:55;;;;;;;25.02;16.25;;;7.70;99.90;;;;;;12384200;28;20486;-86
2020/12/15 12:02:57;;;;;;;25.10;15.77;;;7.80;99.90;;;;;;12377207;28;20049;-86
2020/12/15 12:08:58;;;;;;;24.35;15.35;;;7.80;99.90;;;;;;12399338;28;20068;-86
2020/12/15 12:14:59;;;;;;;22.80;15.00;;;7.80;99.90;;;;;;12398973;28;20674;-85
2020/12/15 12:21:02;;;;;;;20.88;13.80;;;7.90;99.90;;;;;;12394197;28;20086;-86
2020/12/15 12:27:03;;;;;;;20.52;13.73;;;7.90;99.90;;;;;;12381104;28;20398;-86
2020/12/15 12:33:04;;;;;;;22.85;14.38;;;7.90;99.90;;;;;;12375358;28;20057;-85
2020/12/15 12:39:06;;;;;;;21.85;14.85;;;7.90;99.90;;;;;;12393366;28;20062;-86
2020/12/15 12:45:08;;;;;;;25.35;15.98;;;7.80;99.90;;;;;;12393316;28;20042;-86
2020/12/15 12:51:14;;;;;;;23.60;15.60;;;7.90;99.90;;;;;;12375355;28;20137;-86
2020/12/15 12:57:16;;;;;;;22.75;15.07;;;7.80;99.90;;;;;;12391265;28;20174;-86
2020/12/15 13:03:17;;;;;;;25.67;16.30;;;7.80;99.90;;;;;;12370619;28;20053;-86
2020/12/15 13:09:19;;;;;;;23.65;15.82;;;7.80;99.90;;;;;;12389303;28;20534;-85
2020/12/15 13:15:21;;;;;;;27.92;15.77;;;7.80;99.90;;;;;;12376814;28;20112;-86
2020/12/15 13:21:28;;;;;;;29.13;16.15;;;7.80;99.90;;;;;;12393144;28;20111;-86
2020/12/15 13:27:30;;;;;;;28.48;17.30;;;7.80;99.90;;;;;;12370066;28;20384;-86
2020/12/15 13:33:31;;;;;;;24.95;15.85;;;7.80;99.90;;;;;;12396804;28;20046;-86
2020/12/15 13:39:33;;;;;;;26.40;16.52;;;7.80;99.90;;;;;;12387478;28;20054;-86
2020/12/15 13:45:35;;;;;;;26.92;17.20;;;7.80;99.90;;;;;;12374238;28;20445;-86
2020/12/15 13:51:50;;;;;;;29.93;17.20;;;7.80;99.90;;;;;;12372665;28;20046;-86
2020/12/15 13:57:51;;;;;;;30.17;17.33;;;7.80;99.90;;;;;;12376594;28;20145;-86
2020/12/15 14:03:52;;;;;;;27.08;16.67;;;7.80;99.90;;;;;;12382761;28;20133;-86
2020/12/15 14:09:54;;;;;;;27.67;17.33;;;7.70;99.90;;;;;;12394528;28;20505;-87
2020/12/15 14:15:55;;;;;;;30.65;18.42;;;7.70;99.90;;;;;;12376572;28;20054;-86
2020/12/15 14:22:06;;;;;;;25.35;16.83;;;7.70;99.90;;;;;;12392085;28;20057;-86
2020/12/15 14:28:07;;;;;;;27.88;16.75;;;7.70;99.90;;;;;;12387184;28;20053;-86
2020/12/15 14:34:12;;;;;;;25.67;16.27;;;7.70;99.90;;;;;;12376893;28;20498;-86
2020/12/15 14:40:13;;;;;;;29.83;18.15;;;7.70;99.90;;;;;;12386154;28;20061;-85
2020/12/15 14:46:15;;;;;;;34.05;19.33;;;7.70;99.90;;;;;;12392845;28;20787;-86
2020/12/15 14:52:25;;;;;;;33.17;17.77;;;7.70;99.90;;;;;;12376615;28;20046;-86
2020/12/15 14:58:26;;;;;;;30.73;19.02;;;7.60;99.90;;;;;;12410597;28;20057;-86
2020/12/15 15:04:30;;;;;;;28.67;17.98;;;7.60;99.90;;;;;;12410865;28;20057;-86
2020/12/15 15:10:32;;;;;;;30.40;18.40;;;7.60;99.90;;;;;;12397029;28;20119;-86
2020/12/15 15:16:34;;;;;;;33.55;18.70;;;7.60;99.90;;;;;;12373517;28;20050;-86
2020/12/15 15:22:45;;;;;;;32.90;18.17;;;7.60;99.90;;;;;;12386051;28;20057;-85
2020/12/15 15:28:46;;;;;;;32.95;18.80;;;7.70;99.90;;;;;;12386286;28;20053;-85
2020/12/15 15:34:48;;;;;;;28.77;17.45;;;7.60;99.90;;;;;;12384179;28;20061;-84
2020/12/15 15:40:50;;;;;;;31.00;18.25;;;7.70;99.90;;;;;;12376099;28;20069;-84
2020/12/15 15:46:51;;;;;;;32.60;17.92;;;7.70;99.90;;;;;;12367001;28;20054;-85
2020/12/15 15:52:59;;;;;;;28.85;17.85;;;7.70;99.90;;;;;;12385745;28;20053;-84
2020/12/15 15:59:00;;;;;;;35.38;18.92;;;7.80;99.90;;;;;;12374984;28;20092;-85
2020/12/15 16:05:02;;;;;;;27.08;18.02;;;7.80;99.90;;;;;;12375193;28;20058;-85
2020/12/15 16:11:03;;;;;;;29.10;17.52;;;7.80;99.90;;;;;;12400392;28;20061;-85
2020/12/15 16:17:04;;;;;;;28.58;17.13;;;7.90;99.90;;;;;;12390178;28;20061;-85
2020/12/15 16:23:16;;;;;;;29.20;17.73;;;7.80;99.90;;;;;;12396059;28;20080;-85
2020/12/15 16:29:21;;;;;;;24.83;16.45;;;7.90;99.90;;;;;;12399114;28;20061;-84
2020/12/15 16:35:23;;;;;;;30.73;18.23;;;7.90;99.90;;;;;;12383631;28;20077;-85
2020/12/15 16:41:26;;;;;;;26.55;17.20;;;7.90;99.90;;;;;;12400192;28;20058;-84
2020/12/15 16:47:30;;;;;;;28.27;17.08;;;8.00;99.90;;;;;;12372223;28;20069;-84
2020/12/15 16:53:36;;;;;;;26.67;16.98;;;8.00;99.90;;;;;;12374267;28;20406;-85
2020/12/15 16:59:37;;;;;;;29.75;18.20;;;8.00;99.90;;;;;;12376397;28;20051;-85
2020/12/15 17:05:39;;;;;;;27.52;17.00;;;8.00;99.90;;;;;;12397988;28;20054;-84
2020/12/15 17:11:40;;;;;;;28.27;17.75;;;8.00;99.90;;;;;;12392286;28;20517;-84
2020/12/15 17:17:42;;;;;;;25.45;17.42;;;8.00;99.90;;;;;;12400374;28;20458;-85
2020/12/15 17:23:53;;;;;;;31.65;19.02;;;8.10;99.90;;;;;;12396330;28;20104;-85
2020/12/15 17:29:55;;;;;;;26.88;18.30;;;8.10;99.90;;;;;;12391603;28;20537;-85
2020/12/15 17:35:56;;;;;;;26.58;17.98;;;8.20;99.90;;;;;;12386296;28;20050;-85
2020/12/15 17:41:57;;;;;;;32.60;19.45;;;8.30;99.90;;;;;;12376884;28;20062;-86
2020/12/15 17:47:59;;;;;;;29.88;18.67;;;8.30;99.90;;;;;;12378523;28;20058;-85
2020/12/15 17:54:10;;;;;;;27.25;17.52;;;8.30;99.90;;;;;;12390592;28;20589;-85
2020/12/15 18:00:12;;;;;;;25.98;16.90;;;8.30;99.90;;;;;;12391229;28;20086;-84
2020/12/15 18:06:19;;;;;;;24.80;18.13;;;8.40;99.90;;;;;;12379526;28;20387;-85
2020/12/15 18:12:21;;;;;;;24.80;17.65;;;8.40;99.90;;;;;;12374651;28;20054;-85
2020/12/15 18:18:22;;;;;;;25.67;17.70;;;8.40;99.90;;;;;;12381970;28;20045;-85
2020/12/15 18:24:30;;;;;;;27.50;18.35;;;8.40;99.90;;;;;;12428481;28;20049;-85
2020/12/15 18:30:36;;;;;;;34.00;18.30;;;8.40;99.90;;;;;;12399492;28;20054;-84
2020/12/15 18:36:43;;;;;;;29.33;18.52;;;8.40;99.90;;;;;;12388791;28;20053;-84
2020/12/15 18:42:50;;;;;;;28.13;17.77;;;8.50;99.90;;;;;;12387392;28;20456;-85
2020/12/15 18:48:56;;;;;;;30.83;18.50;;;8.60;99.90;;;;;;12379398;28;20058;-85
2020/12/15 18:55:03;;;;;;;29.23;18.98;;;8.60;99.90;;;;;;12363107;28;20077;-85
2020/12/15 19:01:09;;;;;;;30.60;18.95;;;8.60;99.90;;;;;;12368866;28;20050;-84
2020/12/15 19:07:16;;;;;;;34.72;20.40;;;8.60;99.90;;;;;;12384569;28;20058;-84
2020/12/15 19:13:24;;;;;;;37.92;21.35;;;8.60;99.90;;;;;;12381354;28;20125;-85
2020/12/15 19:19:25;;;;;;;36.03;22.05;;;8.50;99.90;;;;;;12391205;28;20046;-85
2020/12/15 19:25:31;;;;;;;37.63;21.55;;;8.50;99.90;;;;;;12371253;28;20086;-85
2020/12/15 19:31:37;;;;;;;37.15;22.80;;;8.60;99.90;;;;;;12367185;28;20134;-86
2020/12/15 19:37:44;;;;;;;36.22;22.60;;;8.60;99.90;;;;;;12395234;28;20405;-85
2020/12/15 19:43:50;;;;;;;38.15;23.83;;;8.60;99.90;;;;;;12398770;28;20057;-85
2020/12/15 19:49:56;;;;;;;38.38;23.15;;;8.60;99.90;;;;;;12398546;28;20503;-84
2020/12/15 19:56:02;;;;;;;36.30;21.90;;;8.60;99.90;;;;;;12388008;28;20058;-85
2020/12/15 20:02:10;;;;;;;36.83;22.25;;;8.70;99.90;;;;;;12378571;28;20058;-85
2020/12/15 20:08:11;;;;;;;46.63;25.02;;;8.60;99.90;;;;;;12403458;28;20046;-84
2020/12/15 20:14:18;;;;;;;46.08;24.80;;;8.60;99.90;;;;;;12411680;28;20475;-85
2020/12/15 20:20:24;;;;;;;46.92;25.75;;;8.60;99.90;;;;;;12408333;28;20418;-84
2020/12/15 20:26:25;;;;;;;43.92;25.48;;;8.60;99.90;;;;;;12410344;28;20601;-85
2020/12/15 20:32:32;;;;;;;51.95;25.77;;;8.60;99.90;;;;;;12387882;28;20544;-84
2020/12/15 20:38:34;;;;;;;55.60;26.55;;;8.60;99.90;;;;;;12384926;28;20054;-85
2020/12/15 20:44:36;;;;;;;51.00;26.13;;;8.60;99.90;;;;;;12382611;28;20444;-85
2020/12/15 20:50:42;;;;;;;60.75;28.92;;;8.60;99.90;;;;;;12372397;28;20074;-84
2020/12/15 20:56:48;;;;;;;58.92;28.23;;;8.60;99.90;;;;;;12401777;28;20092;-85
2020/12/15 21:02:49;;;;;;;56.22;27.33;;;8.70;99.90;;;;;;12377584;28;20065;-84
2020/12/15 21:08:51;;;;;;;58.78;27.15;;;8.60;99.90;;;;;;12396983;28;20428;-84
2020/12/15 21:14:57;;;;;;;58.13;27.20;;;8.60;99.90;;;;;;12397866;28;20075;-85
2020/12/15 21:21:04;;;;;;;49.17;26.67;;;8.70;99.90;;;;;;12377980;28;20091;-85
2020/12/15 21:27:05;;;;;;;42.20;24.77;;;8.70;99.90;;;;;;12401484;28;20054;-86
2020/12/15 21:33:11;;;;;;;47.55;26.38;;;8.90;99.90;;;;;;12377881;28;20469;-85
2020/12/15 21:39:13;;;;;;;49.95;27.00;;;8.70;99.90;;;;;;12417654;28;20078;-85
2020/12/15 21:45:14;;;;;;;54.47;26.77;;;8.70;99.90;;;;;;12390387;28;20422;-84
2020/12/15 21:51:16;;;;;;;52.67;26.30;;;8.50;99.90;;;;;;12366852;28;20137;-84
2020/12/15 21:57:17;;;;;;;47.42;27.33;;;8.50;99.90;;;;;;12372811;28;20089;-84
2020/12/15 22:03:19;;;;;;;56.45;29.08;;;8.50;99.90;;;;;;12389006;28;20656;-84
2020/12/15 22:09:20;;;;;;;63.97;29.90;;;8.40;99.90;;;;;;12376514;28;20105;-85
2020/12/15 22:15:21;;;;;;;56.10;29.60;;;8.40;99.90;;;;;;12398731;28;20360;-85
2020/12/15 22:21:23;;;;;;;64.78;31.17;;;8.50;99.90;;;;;;12404657;28;20053;-85
2020/12/15 22:27:25;;;;;;;54.15;29.85;;;8.50;99.90;;;;;;12379932;28;20082;-85
2020/12/15 22:33:26;;;;;;;65.03;31.90;;;8.60;99.90;;;;;;12378374;28;20067;-85
2020/12/15 22:39:28;;;;;;;59.20;30.42;;;8.50;99.90;;;;;;12377969;28;20084;-85
2020/12/15 22:45:29;;;;;;;65.30;31.13;;;8.60;99.90;;;;;;12394240;28;20051;-84
2020/12/15 22:51:31;;;;;;;63.55;31.40;;;8.60;99.90;;;;;;12376230;28;20129;-85
2020/12/15 22:57:32;;;;;;;65.50;30.80;;;8.50;99.90;;;;;;12390017;28;20050;-85
2020/12/15 23:03:33;;;;;;;56.40;30.17;;;8.60;99.90;;;;;;12387784;28;20062;-84
2020/12/15 23:09:34;;;;;;;64.45;31.35;;;8.50;99.90;;;;;;12372743;28;20537;-85
2020/12/15 23:15:36;;;;;;;69.72;32.65;;;8.50;99.90;;;;;;12371326;28;20297;-85
2020/12/15 23:21:37;;;;;;;65.25;32.05;;;8.50;99.90;;;;;;12402591;28;20086;-84
2020/12/15 23:27:39;;;;;;;68.57;34.47;;;8.50;99.90;;;;;;12380468;28;20092;-84
2020/12/15 23:33:40;;;;;;;63.85;32.45;;;8.50;99.90;;;;;;12405724;28;20054;-85
2020/12/15 23:39:41;;;;;;;69.35;31.88;;;8.50;99.90;;;;;;12392519;28;20081;-84
2020/12/15 23:45:43;;;;;;;69.60;33.95;;;8.50;99.90;;;;;;12390158;28;20054;-85
2020/12/15 23:51:44;;;;;;;72.53;35.28;;;8.50;99.90;;;;;;12383042;28;20080;-85
2020/12/15 23:57:45;;;;;;;70.70;34.80;;;8.60;99.90;;;;;;12412100;28;20185;-85
